sensor_id;sensor_type;location;lat;lon;timestamp;pressure;altitude;pressure_sealevel;temperature;humidity
66689;BME280;53587;59.318;18.084;2023-05-19T00:01:35;103001.13;;;19.37;82.27
66689;BME280;53587;59.318;18.084;2023-05-19T00:04:02;103008.75;;;19.47;86.82
66689;BME280;53587;59.318;18.084;2023-05-19T00:06:29;103006.22;;;19.86;89.42
66689;BME280;53587;59.318;18.084;2023-05-19T00:09:05;103013.63;;;20.15;89.22
66689;BME280;53587;59.318;18.084;2023-05-19T00:11:34;103018.72;;;20.35;90.83
66689;BME280;53587;59.318;18.084;2023-05-19T00:14:00;103018.66;;;20.52;90.15
66689;BME280;53587;59.318;18.084;2023-05-19T00:16:26;103021.38;;;20.64;90.51
66689;BME280;53587;59.318;18.084;2023-05-19T00:18:52;103013.06;;;20.64;89.28
66689;BME280;53587;59.318;18.084;2023-05-19T00:21:18;103019.00;;;20.04;83.82
66689;BME280;53587;59.318;18.084;2023-05-19T00:23:43;103021.72;;;19.58;82.55
66689;BME280;53587;59.318;18.084;2023-05-19T00:26:08;103022.13;;;19.38;82.80
66689;BME280;53587;59.318;18.084;2023-05-19T00:28:33;103023.13;;;19.32;85.89
66689;BME280;53587;59.318;18.084;2023-05-19T00:30:59;103022.44;;;19.66;90.05
66689;BME280;53587;59.318;18.084;2023-05-19T00:33:25;103019.16;;;19.98;89.58
66689;BME280;53587;59.318;18.084;2023-05-19T00:35:50;103027.25;;;20.16;90.93
66689;BME280;53587;59.318;18.084;2023-05-19T00:38:15;103022.91;;;20.37;90.17
66689;BME280;53587;59.318;18.084;2023-05-19T00:40:40;103021.38;;;20.47;89.89
66689;BME280;53587;59.318;18.084;2023-05-19T00:43:06;103018.34;;;20.65;90.33
66689;BME280;53587;59.318;18.084;2023-05-19T00:45:32;103015.59;;;20.31;86.04
66689;BME280;53587;59.318;18.084;2023-05-19T00:47:57;103022.44;;;19.83;84.15
66689;BME280;53587;59.318;18.084;2023-05-19T00:50:23;103034.00;;;19.51;84.03
66689;BME280;53587;59.318;18.084;2023-05-19T00:52:48;103027.34;;;19.23;83.05
66689;BME280;53587;59.318;18.084;2023-05-19T00:55:14;103025.16;;;19.37;87.06
66689;BME280;53587;59.318;18.084;2023-05-19T00:57:39;103030.47;;;19.67;89.74
66689;BME280;53587;59.318;18.084;2023-05-19T01:00:05;103030.38;;;19.91;91.04
66689;BME280;53587;59.318;18.084;2023-05-19T01:04:56;103042.88;;;20.22;89.55
66689;BME280;53587;59.318;18.084;2023-05-19T01:07:21;103045.06;;;20.37;90.37
66689;BME280;53587;59.318;18.084;2023-05-19T01:09:47;103038.31;;;20.50;89.16
66689;BME280;53587;59.318;18.084;2023-05-19T01:12:12;103049.56;;;20.60;90.16
66689;BME280;53587;59.318;18.084;2023-05-19T01:14:38;103042.50;;;20.53;86.90
66689;BME280;53587;59.318;18.084;2023-05-19T01:17:13;103044.97;;;19.86;84.00
66689;BME280;53587;59.318;18.084;2023-05-19T01:19:45;103051.91;;;19.60;83.48
66689;BME280;53587;59.318;18.084;2023-05-19T01:22:21;103056.06;;;19.22;82.37
66689;BME280;53587;59.318;18.084;2023-05-19T01:30:18;103051.91;;;19.89;90.85
66689;BME280;53587;59.318;18.084;2023-05-19T01:32:49;103052.56;;;20.08;89.03
66689;BME280;53587;59.318;18.084;2023-05-19T01:35:17;103049.72;;;20.20;90.09
66689;BME280;53587;59.318;18.084;2023-05-19T01:37:43;103044.78;;;20.39;90.16
66689;BME280;53587;59.318;18.084;2023-05-19T01:40:09;103054.69;;;20.52;87.94
66689;BME280;53587;59.318;18.084;2023-05-19T01:42:35;103048.72;;;20.60;88.94
66689;BME280;53587;59.318;18.084;2023-05-19T01:45:04;103061.31;;;20.68;88.29
66689;BME280;53587;59.318;18.084;2023-05-19T01:47:40;103059.56;;;20.79;89.69
66689;BME280;53587;59.318;18.084;2023-05-19T01:50:05;103057.47;;;20.35;84.70
66689;BME280;53587;59.318;18.084;2023-05-19T01:52:31;103064.38;;;19.74;82.65
66689;BME280;53587;59.318;18.084;2023-05-19T01:54:56;103059.88;;;19.44;83.81
66689;BME280;53587;59.318;18.084;2023-05-19T01:57:31;103058.22;;;19.20;82.33
66689;BME280;53587;59.318;18.084;2023-05-19T02:00:08;103063.59;;;19.38;87.65
66689;BME280;53587;59.318;18.084;2023-05-19T02:02:47;103057.63;;;19.70;90.69
66689;BME280;53587;59.318;18.084;2023-05-19T02:05:21;103054.56;;;19.95;90.92
66689;BME280;53587;59.318;18.084;2023-05-19T02:07:57;103049.63;;;20.15;89.06
66689;BME280;53587;59.318;18.084;2023-05-19T02:10:28;103048.97;;;20.24;89.29
66689;BME280;53587;59.318;18.084;2023-05-19T02:13:00;103056.22;;;20.42;89.52
66689;BME280;53587;59.318;18.084;2023-05-19T02:15:29;103051.41;;;20.55;88.58
66689;BME280;53587;59.318;18.084;2023-05-19T02:17:56;103052.66;;;20.64;89.70
66689;BME280;53587;59.318;18.084;2023-05-19T02:20:22;103053.25;;;20.66;86.37
66689;BME280;53587;59.318;18.084;2023-05-19T02:22:47;103055.38;;;19.96;83.17
66689;BME280;53587;59.318;18.084;2023-05-19T02:25:12;103059.84;;;19.56;82.68
66689;BME280;53587;59.318;18.084;2023-05-19T02:27:38;103058.47;;;19.18;82.02
66689;BME280;53587;59.318;18.084;2023-05-19T02:30:04;103066.66;;;19.25;85.59
66689;BME280;53587;59.318;18.084;2023-05-19T02:32:30;103064.78;;;19.54;89.82
66689;BME280;53587;59.318;18.084;2023-05-19T02:34:55;103059.53;;;19.82;90.95
66689;BME280;53587;59.318;18.084;2023-05-19T02:37:20;103055.59;;;20.06;90.17
66689;BME280;53587;59.318;18.084;2023-05-19T02:39:47;103055.03;;;20.21;91.06
66689;BME280;53587;59.318;18.084;2023-05-19T02:42:13;103053.69;;;20.41;89.80
66689;BME280;53587;59.318;18.084;2023-05-19T02:44:41;103058.97;;;20.59;89.68
66689;BME280;53587;59.318;18.084;2023-05-19T02:47:06;103060.59;;;20.72;90.85
66689;BME280;53587;59.318;18.084;2023-05-19T02:49:32;103059.13;;;20.70;86.85
66689;BME280;53587;59.318;18.084;2023-05-19T02:52:00;103067.66;;;20.00;83.77
66689;BME280;53587;59.318;18.084;2023-05-19T02:54:25;103071.97;;;19.67;84.22
66689;BME280;53587;59.318;18.084;2023-05-19T02:56:50;103072.25;;;19.42;83.28
66689;BME280;53587;59.318;18.084;2023-05-19T02:59:15;103071.91;;;19.38;85.52
66689;BME280;53587;59.318;18.084;2023-05-19T03:01:40;103073.66;;;19.68;89.22
66689;BME280;53587;59.318;18.084;2023-05-19T03:04:06;103073.22;;;19.88;90.93
66689;BME280;53587;59.318;18.084;2023-05-19T03:06:31;103066.88;;;20.05;90.57
66689;BME280;53587;59.318;18.084;2023-05-19T03:08:56;103072.19;;;20.23;88.29
66689;BME280;53587;59.318;18.084;2023-05-19T03:11:22;103069.84;;;20.32;89.53
66689;BME280;53587;59.318;18.084;2023-05-19T03:13:47;103069.66;;;20.51;88.17
66689;BME280;53587;59.318;18.084;2023-05-19T03:16:12;103062.84;;;20.58;88.29
66689;BME280;53587;59.318;18.084;2023-05-19T03:18:37;103074.44;;;20.72;88.95
66689;BME280;53587;59.318;18.084;2023-05-19T03:21:03;103069.38;;;20.35;82.88
66689;BME280;53587;59.318;18.084;2023-05-19T03:23:28;103069.19;;;19.67;82.24
66689;BME280;53587;59.318;18.084;2023-05-19T03:25:53;103087.44;;;19.27;83.24
66689;BME280;53587;59.318;18.084;2023-05-19T03:28:20;103082.41;;;19.01;82.00
66689;BME280;53587;59.318;18.084;2023-05-19T03:30:46;103087.31;;;19.22;87.21
66689;BME280;53587;59.318;18.084;2023-05-19T03:33:13;103091.00;;;19.52;90.29
66689;BME280;53587;59.318;18.084;2023-05-19T03:35:39;103091.53;;;19.77;91.09
66689;BME280;53587;59.318;18.084;2023-05-19T03:38:04;103084.13;;;19.95;89.84
66689;BME280;53587;59.318;18.084;2023-05-19T03:40:29;103089.28;;;20.03;88.36
66689;BME280;53587;59.318;18.084;2023-05-19T03:42:54;103085.22;;;20.23;88.92
66689;BME280;53587;59.318;18.084;2023-05-19T03:45:20;103092.47;;;20.41;86.83
66689;BME280;53587;59.318;18.084;2023-05-19T03:47:45;103094.56;;;20.51;88.87
66689;BME280;53587;59.318;18.084;2023-05-19T03:50:11;103083.16;;;20.47;84.37
66689;BME280;53587;59.318;18.084;2023-05-19T03:52:36;103086.25;;;19.64;82.92
66689;BME280;53587;59.318;18.084;2023-05-19T03:55:03;103096.94;;;19.31;83.12
66689;BME280;53587;59.318;18.084;2023-05-19T03:57:29;103093.72;;;18.99;81.89
66689;BME280;53587;59.318;18.084;2023-05-19T03:59:54;103084.91;;;18.90;85.49
66689;BME280;53587;59.318;18.084;2023-05-19T04:02:19;103096.81;;;19.26;88.96
66689;BME280;53587;59.318;18.084;2023-05-19T04:04:44;103086.88;;;19.54;91.05
66689;BME280;53587;59.318;18.084;2023-05-19T04:07:10;103088.75;;;19.77;89.74
66689;BME280;53587;59.318;18.084;2023-05-19T04:09:35;103090.78;;;19.94;87.97
66689;BME280;53587;59.318;18.084;2023-05-19T04:14:26;103077.59;;;20.30;86.62
66689;BME280;53587;59.318;18.084;2023-05-19T04:16:52;103084.97;;;20.41;86.97
66689;BME280;53587;59.318;18.084;2023-05-19T04:19:18;103090.19;;;20.55;86.61
66689;BME280;53587;59.318;18.084;2023-05-19T04:21:43;103096.31;;;19.94;82.77
66689;BME280;53587;59.318;18.084;2023-05-19T04:24:08;103090.19;;;19.39;82.73
66689;BME280;53587;59.318;18.084;2023-05-19T04:26:33;103095.97;;;19.02;82.14
66689;BME280;53587;59.318;18.084;2023-05-19T04:28:59;103091.84;;;18.69;82.57
66689;BME280;53587;59.318;18.084;2023-05-19T04:31:25;103093.84;;;19.04;87.87
66689;BME280;53587;59.318;18.084;2023-05-19T04:33:52;103096.22;;;19.36;90.92
66689;BME280;53587;59.318;18.084;2023-05-19T04:36:17;103095.06;;;19.61;90.43
66689;BME280;53587;59.318;18.084;2023-05-19T04:38:45;103091.03;;;19.81;88.96
66689;BME280;53587;59.318;18.084;2023-05-19T04:41:10;103090.19;;;19.92;89.10
66689;BME280;53587;59.318;18.084;2023-05-19T04:43:38;103087.69;;;20.07;88.24
66689;BME280;53587;59.318;18.084;2023-05-19T04:46:08;103084.47;;;20.27;86.33
66689;BME280;53587;59.318;18.084;2023-05-19T04:48:35;103081.38;;;20.41;87.84
66689;BME280;53587;59.318;18.084;2023-05-19T04:51:00;103086.91;;;19.95;82.96
66689;BME280;53587;59.318;18.084;2023-05-19T04:53:28;103093.03;;;19.44;82.98
66689;BME280;53587;59.318;18.084;2023-05-19T04:55:54;103089.38;;;19.03;82.77
66689;BME280;53587;59.318;18.084;2023-05-19T04:58:20;103088.00;;;18.70;82.71
66689;BME280;53587;59.318;18.084;2023-05-19T05:00:45;103091.91;;;18.93;87.17
66689;BME280;53587;59.318;18.084;2023-05-19T05:03:11;103098.38;;;19.22;89.84
66689;BME280;53587;59.318;18.084;2023-05-19T05:05:38;103085.84;;;19.43;90.97
66689;BME280;53587;59.318;18.084;2023-05-19T05:08:03;103091.69;;;19.71;88.84
66689;BME280;53587;59.318;18.084;2023-05-19T05:10:28;103097.41;;;19.81;87.47
66689;BME280;53587;59.318;18.084;2023-05-19T05:12:54;103095.00;;;20.14;88.52
66689;BME280;53587;59.318;18.084;2023-05-19T05:15:20;103090.06;;;20.16;83.05
66689;BME280;53587;59.318;18.084;2023-05-19T05:17:45;103093.06;;;19.85;82.73
66689;BME280;53587;59.318;18.084;2023-05-19T05:20:11;103101.50;;;19.78;83.55
66689;BME280;53587;59.318;18.084;2023-05-19T05:22:36;103099.22;;;19.75;84.05
66689;BME280;53587;59.318;18.084;2023-05-19T05:25:02;103088.81;;;20.06;87.32
66689;BME280;53587;59.318;18.084;2023-05-19T05:27:28;103100.88;;;20.63;89.64
66689;BME280;53587;59.318;18.084;2023-05-19T05:29:53;103095.75;;;20.55;85.98
66689;BME280;53587;59.318;18.084;2023-05-19T05:32:18;103093.28;;;20.41;82.98
66689;BME280;53587;59.318;18.084;2023-05-19T05:34:44;103093.88;;;20.43;83.59
66689;BME280;53587;59.318;18.084;2023-05-19T05:37:09;103092.03;;;20.49;84.00
66689;BME280;53587;59.318;18.084;2023-05-19T05:39:35;103094.66;;;20.56;86.03
66689;BME280;53587;59.318;18.084;2023-05-19T05:42:00;103099.63;;;20.88;85.91
66689;BME280;53587;59.318;18.084;2023-05-19T05:44:25;103105.31;;;20.98;84.09
66689;BME280;53587;59.318;18.084;2023-05-19T05:46:50;103099.03;;;21.03;84.72
66689;BME280;53587;59.318;18.084;2023-05-19T05:49:16;103109.47;;;21.18;83.98
66689;BME280;53587;59.318;18.084;2023-05-19T05:51:41;103099.56;;;21.22;84.76
66689;BME280;53587;59.318;18.084;2023-05-19T05:54:06;103106.84;;;21.28;85.39
66689;BME280;53587;59.318;18.084;2023-05-19T05:56:32;103103.91;;;21.35;84.79
66689;BME280;53587;59.318;18.084;2023-05-19T05:58:58;103098.47;;;21.45;85.63
66689;BME280;53587;59.318;18.084;2023-05-19T06:01:23;103106.03;;;21.50;83.78
66689;BME280;53587;59.318;18.084;2023-05-19T06:03:48;103105.50;;;21.53;85.19
66689;BME280;53587;59.318;18.084;2023-05-19T06:06:13;103104.88;;;21.68;85.11
66689;BME280;53587;59.318;18.084;2023-05-19T06:08:39;103109.03;;;21.65;83.54
66689;BME280;53587;59.318;18.084;2023-05-19T06:11:04;103106.84;;;21.67;85.40
66689;BME280;53587;59.318;18.084;2023-05-19T06:13:34;103105.16;;;21.66;84.33
66689;BME280;53587;59.318;18.084;2023-05-19T06:15:59;103106.53;;;21.47;84.20
66689;BME280;53587;59.318;18.084;2023-05-19T06:18:25;103104.34;;;21.49;84.89
66689;BME280;53587;59.318;18.084;2023-05-19T06:20:51;103103.69;;;21.42;84.10
66689;BME280;53587;59.318;18.084;2023-05-19T06:23:16;103114.09;;;21.51;85.00
66689;BME280;53587;59.318;18.084;2023-05-19T06:25:41;103113.28;;;21.51;83.63
66689;BME280;53587;59.318;18.084;2023-05-19T06:28:06;103120.06;;;21.60;84.49
66689;BME280;53587;59.318;18.084;2023-05-19T06:30:31;103123.84;;;21.54;84.34
66689;BME280;53587;59.318;18.084;2023-05-19T06:32:57;103119.47;;;21.58;83.63
66689;BME280;53587;59.318;18.084;2023-05-19T06:35:22;103122.84;;;21.60;85.25
66689;BME280;53587;59.318;18.084;2023-05-19T06:37:47;103112.31;;;21.62;82.73
66689;BME280;53587;59.318;18.084;2023-05-19T06:40:12;103121.16;;;21.59;84.43
66689;BME280;53587;59.318;18.084;2023-05-19T06:42:38;103128.50;;;21.70;84.19
66689;BME280;53587;59.318;18.084;2023-05-19T06:45:03;103122.84;;;21.60;84.10
66689;BME280;53587;59.318;18.084;2023-05-19T06:47:28;103124.00;;;21.64;85.05
66689;BME280;53587;59.318;18.084;2023-05-19T06:49:53;103122.41;;;21.68;84.14
66689;BME280;53587;59.318;18.084;2023-05-19T06:52:19;103130.00;;;21.56;84.02
66689;BME280;53587;59.318;18.084;2023-05-19T06:54:45;103117.19;;;21.55;83.39
66689;BME280;53587;59.318;18.084;2023-05-19T06:57:10;103125.78;;;21.53;83.33
66689;BME280;53587;59.318;18.084;2023-05-19T06:59:35;103121.59;;;21.51;85.12
66689;BME280;53587;59.318;18.084;2023-05-19T07:02:01;103132.09;;;21.49;83.50
66689;BME280;53587;59.318;18.084;2023-05-19T07:04:26;103127.03;;;21.46;83.96
66689;BME280;53587;59.318;18.084;2023-05-19T07:06:52;103134.09;;;21.53;83.58
66689;BME280;53587;59.318;18.084;2023-05-19T07:09:17;103131.56;;;21.52;83.67
66689;BME280;53587;59.318;18.084;2023-05-19T07:11:42;103125.53;;;21.55;83.77
66689;BME280;53587;59.318;18.084;2023-05-19T07:14:07;103134.00;;;21.65;83.30
66689;BME280;53587;59.318;18.084;2023-05-19T07:16:33;103137.81;;;21.59;84.73
66689;BME280;53587;59.318;18.084;2023-05-19T07:18:58;103139.81;;;21.64;83.08
66689;BME280;53587;59.318;18.084;2023-05-19T07:21:23;103133.59;;;21.57;83.57
66689;BME280;53587;59.318;18.084;2023-05-19T07:23:48;103129.47;;;21.59;84.07
66689;BME280;53587;59.318;18.084;2023-05-19T07:26:14;103138.47;;;21.49;83.59
66689;BME280;53587;59.318;18.084;2023-05-19T07:28:39;103142.53;;;21.59;83.98
66689;BME280;53587;59.318;18.084;2023-05-19T07:31:06;103143.88;;;21.56;83.37
66689;BME280;53587;59.318;18.084;2023-05-19T07:33:31;103146.56;;;21.51;84.31
66689;BME280;53587;59.318;18.084;2023-05-19T07:35:56;103148.41;;;21.62;84.24
66689;BME280;53587;59.318;18.084;2023-05-19T07:38:22;103136.03;;;21.53;83.84
66689;BME280;53587;59.318;18.084;2023-05-19T07:40:47;103146.56;;;21.51;84.48
66689;BME280;53587;59.318;18.084;2023-05-19T07:43:12;103152.25;;;21.61;83.73
66689;BME280;53587;59.318;18.084;2023-05-19T07:45:37;103144.13;;;21.54;84.04
66689;BME280;53587;59.318;18.084;2023-05-19T07:48:02;103147.88;;;21.65;84.37
66689;BME280;53587;59.318;18.084;2023-05-19T07:50:28;103142.16;;;21.55;84.24
66689;BME280;53587;59.318;18.084;2023-05-19T07:52:53;103144.34;;;21.53;84.50
66689;BME280;53587;59.318;18.084;2023-05-19T07:55:18;103141.09;;;21.56;83.51
66689;BME280;53587;59.318;18.084;2023-05-19T07:57:47;103141.94;;;21.57;85.05
66689;BME280;53587;59.318;18.084;2023-05-19T08:00:12;103150.06;;;21.63;84.10
66689;BME280;53587;59.318;18.084;2023-05-19T08:02:37;103150.06;;;21.63;84.00
66689;BME280;53587;59.318;18.084;2023-05-19T08:05:03;103148.41;;;21.62;84.67
66689;BME280;53587;59.318;18.084;2023-05-19T08:07:28;103139.53;;;21.65;84.09
66689;BME280;53587;59.318;18.084;2023-05-19T08:09:53;103153.41;;;21.65;83.90
66689;BME280;53587;59.318;18.084;2023-05-19T08:12:19;103149.56;;;21.66;84.10
66689;BME280;53587;59.318;18.084;2023-05-19T08:14:44;103146.50;;;21.68;84.17
66689;BME280;53587;59.318;18.084;2023-05-19T08:17:09;103146.00;;;21.71;84.81
66689;BME280;53587;59.318;18.084;2023-05-19T08:19:35;103149.56;;;21.66;84.42
66689;BME280;53587;59.318;18.084;2023-05-19T08:22:00;103135.63;;;21.61;84.26
66689;BME280;53587;59.318;18.084;2023-05-19T08:24:26;103145.69;;;21.67;84.17
66689;BME280;53587;59.318;18.084;2023-05-19T08:26:53;103143.66;;;21.63;83.47
66689;BME280;53587;59.318;18.084;2023-05-19T08:29:18;103137.63;;;21.66;84.16
66689;BME280;53587;59.318;18.084;2023-05-19T08:31:44;103136.75;;;21.65;83.08
66689;BME280;53587;59.318;18.084;2023-05-19T08:34:09;103139.66;;;21.53;84.00
66689;BME280;53587;59.318;18.084;2023-05-19T08:36:34;103136.03;;;21.53;83.61
66689;BME280;53587;59.318;18.084;2023-05-19T08:39:00;103149.44;;;21.56;83.70
66689;BME280;53587;59.318;18.084;2023-05-19T08:41:25;103147.22;;;21.58;84.38
66689;BME280;53587;59.318;18.084;2023-05-19T08:43:50;103140.00;;;21.57;83.45
66689;BME280;53587;59.318;18.084;2023-05-19T08:46:15;103157.06;;;21.49;84.12
66689;BME280;53587;59.318;18.084;2023-05-19T08:48:41;103152.75;;;21.58;83.20
66689;BME280;53587;59.318;18.084;2023-05-19T08:51:13;103143.19;;;21.49;83.15
66689;BME280;53587;59.318;18.084;2023-05-19T08:53:43;103140.47;;;21.54;84.47
66689;BME280;53587;59.318;18.084;2023-05-19T08:56:15;103127.31;;;21.44;83.48
66689;BME280;53587;59.318;18.084;2023-05-19T08:58:43;103136.56;;;21.50;84.34
66689;BME280;53587;59.318;18.084;2023-05-19T09:01:09;103144.94;;;21.55;83.23
66689;BME280;53587;59.318;18.084;2023-05-19T09:03:35;103123.50;;;21.50;83.69
66689;BME280;53587;59.318;18.084;2023-05-19T09:06:06;103137.31;;;21.62;83.17
66689;BME280;53587;59.318;18.084;2023-05-19T09:08:41;103128.56;;;21.53;82.95
66689;BME280;53587;59.318;18.084;2023-05-19T09:11:10;103143.88;;;21.56;84.34
66689;BME280;53587;59.318;18.084;2023-05-19T09:13:35;103139.06;;;21.51;83.63
66689;BME280;53587;59.318;18.084;2023-05-19T09:16:01;103138.66;;;21.60;84.07
66689;BME280;53587;59.318;18.084;2023-05-19T09:18:27;103142.84;;;21.62;83.32
66689;BME280;53587;59.318;18.084;2023-05-19T09:20:57;103138.78;;;21.53;83.30
66689;BME280;53587;59.318;18.084;2023-05-19T09:23:32;103125.53;;;21.55;84.01
66689;BME280;53587;59.318;18.084;2023-05-19T09:26:00;103126.03;;;21.52;83.10
66689;BME280;53587;59.318;18.084;2023-05-19T09:28:26;103135.19;;;21.52;83.18
66689;BME280;53587;59.318;18.084;2023-05-19T09:31:25;103126.75;;;21.64;82.62
66689;BME280;53587;59.318;18.084;2023-05-19T09:33:43;103130.25;;;21.54;83.26
66689;BME280;53587;59.318;18.084;2023-05-19T09:36:09;103133.94;;;21.60;84.00
66689;BME280;53587;59.318;18.084;2023-05-19T09:38:35;103128.56;;;21.53;83.46
66689;BME280;53587;59.318;18.084;2023-05-19T09:41:01;103127.22;;;21.56;84.80
66689;BME280;53587;59.318;18.084;2023-05-19T09:43:26;103113.50;;;21.49;83.12
66689;BME280;53587;59.318;18.084;2023-05-19T09:46:05;103130.47;;;21.53;83.63
66689;BME280;53587;59.318;18.084;2023-05-19T09:48:31;103127.56;;;21.60;83.62
66689;BME280;53587;59.318;18.084;2023-05-19T09:50:56;103124.38;;;21.51;83.76
66689;BME280;53587;59.318;18.084;2023-05-19T09:53:22;103125.53;;;21.55;84.44
66689;BME280;53587;59.318;18.084;2023-05-19T09:55:48;103128.72;;;21.64;82.74
66689;BME280;53587;59.318;18.084;2023-05-19T09:58:15;103132.50;;;21.58;84.11
66689;BME280;53587;59.318;18.084;2023-05-19T10:00:41;103125.34;;;21.62;82.42
66689;BME280;53587;59.318;18.084;2023-05-19T10:03:07;103118.28;;;21.54;83.41
66689;BME280;53587;59.318;18.084;2023-05-19T10:05:33;103121.16;;;21.59;83.59
66689;BME280;53587;59.318;18.084;2023-05-19T10:07:58;103133.25;;;21.53;83.00
66689;BME280;53587;59.318;18.084;2023-05-19T10:10:24;103133.94;;;21.60;83.90
66689;BME280;53587;59.318;18.084;2023-05-19T10:12:51;103114.41;;;21.55;82.56
66689;BME280;53587;59.318;18.084;2023-05-19T10:15:18;103124.38;;;21.51;83.67
66689;BME280;53587;59.318;18.084;2023-05-19T10:17:44;103122.66;;;21.67;83.91
66689;BME280;53587;59.318;18.084;2023-05-19T10:20:10;103119.16;;;21.54;83.58
66689;BME280;53587;59.318;18.084;2023-05-19T10:22:39;103102.16;;;21.51;84.37
66689;BME280;53587;59.318;18.084;2023-05-19T10:25:05;103113.78;;;21.48;82.65
66689;BME280;53587;59.318;18.084;2023-05-19T10:27:31;103115.94;;;21.46;83.54
66689;BME280;53587;59.318;18.084;2023-05-19T10:29:58;103114.41;;;21.55;83.28
66689;BME280;53587;59.318;18.084;2023-05-19T10:32:26;103112.09;;;21.47;83.39
66689;BME280;53587;59.318;18.084;2023-05-19T10:37:32;103097.28;;;21.58;83.01
66689;BME280;53587;59.318;18.084;2023-05-19T10:39:58;103099.53;;;21.61;83.49
66689;BME280;53587;59.318;18.084;2023-05-19T10:43:04;103097.78;;;21.55;82.50
66689;BME280;53587;59.318;18.084;2023-05-19T10:47:41;103103.25;;;21.67;84.18
66689;BME280;53587;59.318;18.084;2023-05-19T10:50:06;103100.13;;;21.63;82.81
66689;BME280;53587;59.318;18.084;2023-05-19T10:52:32;103102.00;;;21.58;84.42
66689;BME280;53587;59.318;18.084;2023-05-19T10:55:00;103110.59;;;21.56;82.40
66689;BME280;53587;59.318;18.084;2023-05-19T10:57:26;103113.28;;;21.51;83.70
66689;BME280;53587;59.318;18.084;2023-05-19T10:59:56;103109.38;;;21.52;83.65
66689;BME280;53587;59.318;18.084;2023-05-19T11:02:55;103105.03;;;21.56;83.63
66689;BME280;53587;59.318;18.084;2023-05-19T11:05:22;103104.78;;;21.58;83.53
66689;BME280;53587;59.318;18.084;2023-05-19T11:07:58;103102.66;;;21.48;83.39
66689;BME280;53587;59.318;18.084;2023-05-19T11:10:31;103103.31;;;21.55;84.24
66689;BME280;53587;59.318;18.084;2023-05-19T11:12:56;103109.38;;;21.52;83.59
66689;BME280;53587;59.318;18.084;2023-05-19T11:15:23;103095.97;;;21.44;84.13
66689;BME280;53587;59.318;18.084;2023-05-19T11:17:49;103103.75;;;21.64;83.01
66689;BME280;53587;59.318;18.084;2023-05-19T11:20:25;103104.41;;;21.54;83.64
66689;BME280;53587;59.318;18.084;2023-05-19T11:23:00;103105.91;;;21.62;84.38
66689;BME280;53587;59.318;18.084;2023-05-19T11:28:07;103100.63;;;21.60;83.85
66689;BME280;53587;59.318;18.084;2023-05-19T11:30:32;103103.31;;;21.55;82.76
66689;BME280;53587;59.318;18.084;2023-05-19T11:32:58;103094.09;;;21.49;83.53
66689;BME280;53587;59.318;18.084;2023-05-19T11:35:23;103112.59;;;21.61;84.13
66689;BME280;53587;59.318;18.084;2023-05-19T11:37:49;103101.63;;;21.54;82.77
66689;BME280;53587;59.318;18.084;2023-05-19T11:40:18;103097.53;;;21.57;83.94
66689;BME280;53587;59.318;18.084;2023-05-19T11:42:45;103102.25;;;21.56;83.12
66689;BME280;53587;59.318;18.084;2023-05-19T11:45:10;103110.59;;;21.56;83.83
66689;BME280;53587;59.318;18.084;2023-05-19T11:47:36;103109.56;;;21.62;83.34
66689;BME280;53587;59.318;18.084;2023-05-19T11:50:01;103112.28;;;21.57;83.59
66689;BME280;53587;59.318;18.084;2023-05-19T11:52:26;103103.81;;;21.52;84.37
66689;BME280;53587;59.318;18.084;2023-05-19T11:54:52;103093.94;;;21.56;82.84
66689;BME280;53587;59.318;18.084;2023-05-19T11:57:17;103098.28;;;21.52;84.15
66689;BME280;53587;59.318;18.084;2023-05-19T11:59:42;103115.50;;;21.54;84.31
66689;BME280;53587;59.318;18.084;2023-05-19T12:02:22;103108.53;;;21.51;84.04
66689;BME280;53587;59.318;18.084;2023-05-19T12:04:51;103100.13;;;21.63;84.52
66689;BME280;53587;59.318;18.084;2023-05-19T12:07:21;103107.34;;;21.64;83.79
66689;BME280;53587;59.318;18.084;2023-05-19T12:09:47;103098.28;;;21.52;84.60
66689;BME280;53587;59.318;18.084;2023-05-19T12:12:14;103100.63;;;21.60;83.44
66689;BME280;53587;59.318;18.084;2023-05-19T12:14:40;103100.63;;;21.60;83.78
66689;BME280;53587;59.318;18.084;2023-05-19T12:17:09;103096.19;;;21.59;84.63
66689;BME280;53587;59.318;18.084;2023-05-19T12:19:36;103098.47;;;21.62;83.21
66689;BME280;53587;59.318;18.084;2023-05-19T12:22:01;103094.31;;;21.65;83.84
66689;BME280;53587;59.318;18.084;2023-05-19T12:24:27;103100.13;;;21.63;83.13
66689;BME280;53587;59.318;18.084;2023-05-19T12:27:03;103105.78;;;21.51;83.45
66689;BME280;53587;59.318;18.084;2023-05-19T12:29:30;103096.19;;;21.59;83.36
66689;BME280;53587;59.318;18.084;2023-05-19T12:31:55;103100.47;;;21.67;83.80
66689;BME280;53587;59.318;18.084;2023-05-19T12:34:20;103104.66;;;21.69;84.58
66689;BME280;53587;59.318;18.084;2023-05-19T12:36:47;103101.78;;;21.64;83.49
66689;BME280;53587;59.318;18.084;2023-05-19T12:39:12;103099.50;;;21.56;83.99
66689;BME280;53587;59.318;18.084;2023-05-19T12:41:38;103097.59;;;21.62;83.51
66689;BME280;53587;59.318;18.084;2023-05-19T12:44:11;103087.09;;;21.64;83.89
66689;BME280;53587;59.318;18.084;2023-05-19T12:46:38;103100.56;;;21.55;84.34
66689;BME280;53587;59.318;18.084;2023-05-19T12:49:04;103112.88;;;21.64;83.90
66689;BME280;53587;59.318;18.084;2023-05-19T12:51:29;103100.13;;;21.63;84.35
66689;BME280;53587;59.318;18.084;2023-05-19T12:53:54;103094.59;;;21.63;82.99
66689;BME280;53587;59.318;18.084;2023-05-19T12:56:19;103101.78;;;21.64;83.66